createdAt,value
2018-03-14T09:16:45.487Z,4.50
2018-03-14T09:19:13.831Z,4.30
2018-03-14T09:21:42.157Z,4.70
2018-03-14T09:24:10.494Z,4.10
2018-03-14T09:26:38.818Z,7.53
2018-03-14T09:29:07.150Z,4.53
2018-03-14T09:31:35.470Z,3.70
2018-03-14T09:34:04.068Z,5.07
2018-03-14T09:36:32.391Z,3.27
2018-03-14T09:39:00.734Z,3.30
2018-03-14T09:41:29.061Z,2.93
2018-03-14T09:43:57.409Z,4.37
2018-03-14T09:46:25.730Z,4.20
2018-03-14T09:48:54.075Z,3.22
2018-03-14T09:51:22.413Z,2.80
2018-03-14T09:53:50.725Z,3.97
2018-03-14T09:56:19.052Z,3.63
2018-03-14T09:58:47.393Z,3.90
2018-03-14T10:01:15.719Z,3.50
2018-03-14T10:03:44.082Z,3.07
2018-03-14T10:06:12.401Z,4.25
2018-03-14T10:08:40.726Z,3.27
2018-03-14T10:11:09.074Z,3.77
2018-03-14T10:13:37.395Z,3.50
2018-03-14T10:16:06.710Z,3.23
2018-03-14T10:18:35.030Z,2.90
2018-03-14T10:21:03.375Z,2.67
2018-03-14T10:23:31.690Z,3.47
2018-03-14T10:26:00.044Z,3.35
2018-03-14T10:28:28.358Z,4.00
2018-03-14T10:30:56.702Z,3.50
2018-03-14T10:33:25.022Z,3.20
2018-03-14T10:35:53.362Z,3.20
2018-03-14T10:38:21.681Z,3.03
2018-03-14T10:40:50.054Z,2.87
2018-03-14T10:43:18.371Z,2.33
2018-03-14T10:45:46.690Z,2.00
2018-03-14T10:48:15.033Z,2.35
2018-03-14T10:50:43.348Z,2.40
2018-03-14T10:53:11.685Z,3.17
2018-03-14T10:55:40.005Z,3.63
2018-03-14T10:58:08.346Z,2.17
2018-03-14T11:00:42.239Z,3.35
2018-03-14T11:03:16.294Z,3.75
2018-03-14T11:05:44.619Z,1.70
2018-03-14T11:08:12.957Z,1.90
2018-03-14T11:10:41.269Z,2.13
2018-03-14T11:13:09.609Z,1.67
2018-03-14T11:15:37.930Z,2.30
2018-03-14T11:18:06.281Z,2.80
2018-03-14T11:20:34.586Z,2.12
2018-03-14T11:23:02.906Z,2.63
2018-03-14T11:25:31.308Z,4.50
2018-03-14T11:27:59.606Z,3.57
2018-03-14T11:30:27.934Z,3.15
2018-03-14T11:32:56.260Z,2.30
2018-03-14T11:35:24.602Z,2.70
2018-03-14T11:37:52.923Z,2.40
2018-03-14T11:40:21.259Z,2.70
2018-03-14T11:42:49.575Z,2.47
2018-03-14T11:45:17.915Z,3.07
2018-03-14T11:47:46.238Z,2.83
2018-03-14T11:50:14.578Z,3.23
2018-03-14T11:52:42.902Z,2.50
2018-03-14T11:55:11.238Z,2.50
2018-03-14T11:57:40.394Z,2.50
2018-03-14T12:00:08.729Z,2.57
2018-03-14T12:02:37.046Z,2.13
2018-03-14T12:05:05.382Z,2.75
2018-03-14T12:07:33.695Z,2.70
2018-03-14T12:10:02.067Z,3.00
2018-03-14T12:12:30.382Z,2.40
2018-03-14T12:14:58.719Z,2.37
2018-03-14T12:17:27.070Z,3.00
2018-03-14T12:19:55.418Z,2.47
2018-03-14T12:22:29.510Z,2.53
2018-03-14T12:24:57.879Z,2.70
2018-03-14T12:27:26.202Z,2.50
2018-03-14T12:29:54.564Z,2.40
2018-03-14T12:32:22.853Z,2.62
2018-03-14T12:34:51.182Z,3.97
2018-03-14T12:37:19.514Z,2.53
2018-03-14T12:39:47.832Z,2.67
2018-03-14T12:42:16.186Z,2.53
2018-03-14T12:44:44.497Z,2.67
2018-03-14T12:47:12.838Z,2.33
2018-03-14T12:49:41.151Z,2.55
2018-03-14T12:52:09.484Z,2.80
2018-03-14T12:54:37.802Z,2.90
2018-03-14T12:57:06.149Z,2.80
2018-03-14T12:59:34.474Z,3.00
2018-03-14T13:02:02.809Z,3.70
2018-03-14T13:04:31.122Z,2.43
2018-03-14T13:06:59.441Z,2.90
2018-03-14T13:09:27.782Z,2.90
2018-03-14T13:11:56.114Z,2.65
2018-03-14T13:14:24.462Z,3.10
2018-03-14T13:16:52.779Z,3.00
2018-03-14T13:19:21.746Z,2.90
2018-03-14T13:21:50.066Z,2.50
2018-03-14T13:24:18.406Z,2.20
2018-03-14T13:26:46.722Z,2.60
2018-03-14T13:29:15.063Z,2.17
2018-03-14T13:31:43.376Z,2.73
2018-03-14T13:34:11.713Z,2.50
2018-03-14T13:36:40.023Z,2.30
2018-03-14T13:39:09.330Z,2.92
2018-03-14T13:41:37.651Z,2.40
2018-03-14T13:44:05.988Z,2.70
2018-03-14T13:46:34.306Z,2.50
2018-03-14T13:49:02.640Z,2.10
2018-03-14T13:51:30.968Z,4.70
2018-03-14T13:53:59.295Z,3.40
2018-03-14T13:56:27.630Z,4.10
2018-03-14T13:58:56.076Z,6.70
2018-03-14T14:01:24.413Z,7.67
2018-03-14T14:03:52.738Z,8.20
2018-03-14T14:06:21.082Z,6.50
2018-03-14T14:08:49.402Z,5.57
2018-03-14T14:11:17.759Z,4.90
2018-03-14T14:13:46.074Z,5.30
2018-03-14T14:16:14.419Z,5.73
2018-03-14T14:18:42.739Z,4.40
2018-03-14T14:21:11.072Z,3.20
2018-03-14T14:23:39.389Z,4.40
2018-03-14T14:26:07.734Z,4.20
2018-03-14T14:28:36.053Z,3.40
2018-03-14T14:31:04.410Z,4.70
2018-03-14T14:33:32.729Z,4.20
2018-03-14T14:36:01.054Z,5.40
2018-03-14T14:38:29.397Z,7.70
2018-03-14T14:40:57.718Z,8.40
2018-03-14T14:43:26.061Z,8.87
2018-03-14T14:45:54.382Z,10.23
2018-03-14T14:48:22.725Z,9.75
2018-03-14T14:50:51.054Z,8.37
2018-03-14T14:53:19.398Z,10.40
2018-03-14T14:55:47.726Z,10.20
2018-03-14T14:58:16.074Z,10.18
2018-03-14T15:00:44.407Z,10.27
2018-03-14T15:03:12.756Z,10.37
2018-03-14T15:05:41.077Z,11.33
2018-03-14T15:08:10.126Z,12.60
2018-03-14T15:10:38.466Z,10.75
2018-03-14T15:13:06.828Z,10.00
2018-03-14T15:15:35.150Z,9.57
2018-03-14T15:18:03.522Z,11.00
2018-03-14T15:20:31.846Z,9.13
2018-03-14T15:23:00.173Z,12.23
2018-03-14T15:25:28.522Z,12.70
2018-03-14T15:27:56.929Z,13.40
2018-03-14T15:30:25.203Z,11.32
2018-03-14T15:32:53.534Z,10.02
2018-03-14T15:35:21.890Z,10.97
2018-03-14T15:37:50.214Z,11.40
2018-03-14T15:40:18.562Z,6.73
2018-03-14T15:42:46.882Z,6.33
2018-03-14T15:45:15.230Z,5.93
2018-03-14T15:47:43.562Z,6.47
2018-03-14T15:50:11.894Z,7.57
2018-03-14T15:52:40.225Z,6.50
2018-03-14T15:55:08.582Z,7.07
2018-03-14T15:57:36.907Z,8.27
2018-03-14T16:00:05.231Z,6.23
2018-03-14T16:02:33.579Z,6.70
2018-03-14T16:05:01.898Z,7.70
2018-03-14T16:07:30.246Z,9.20
2018-03-14T16:09:58.574Z,10.60
2018-03-14T16:12:26.922Z,9.27
2018-03-14T16:14:55.893Z,6.12
2018-03-14T16:17:24.243Z,12.87
2018-03-14T16:19:52.570Z,24.47
2018-03-14T16:22:20.919Z,9.88
2018-03-14T16:24:49.250Z,7.13
2018-03-14T16:27:17.592Z,7.80
2018-03-14T16:29:45.909Z,7.53
2018-03-14T16:32:14.438Z,5.50
2018-03-14T16:34:43.766Z,6.00
2018-03-14T16:37:12.272Z,7.05
2018-03-14T16:39:40.753Z,7.77
2018-03-14T16:42:09.175Z,8.03
2018-03-14T16:44:37.669Z,9.33
2018-03-14T16:47:06.087Z,13.30
2018-03-14T16:49:34.575Z,8.60
2018-03-14T16:52:03.016Z,7.97
2018-03-14T16:54:32.401Z,9.50
2018-03-14T16:57:01.075Z,10.37
2018-03-14T16:59:29.696Z,10.02
2018-03-14T17:01:58.221Z,13.30
2018-03-14T17:04:26.656Z,13.17
2018-03-14T17:06:55.160Z,12.20
2018-03-14T17:09:23.612Z,11.60
2018-03-14T17:11:52.088Z,11.60
2018-03-14T17:14:27.279Z,12.50
2018-03-14T17:16:52.789Z,11.98
2018-03-14T17:19:21.335Z,11.13
2018-03-14T17:21:49.948Z,11.10
2018-03-14T17:24:18.550Z,11.60
2018-03-14T17:26:47.030Z,9.02
2018-03-14T17:29:15.519Z,10.40
2018-03-14T17:31:43.924Z,9.15
2018-03-14T17:34:12.496Z,8.33
2018-03-14T17:36:40.884Z,9.17
2018-03-14T17:39:09.387Z,10.57
2018-03-14T17:41:37.868Z,13.57
2018-03-14T17:44:06.302Z,12.73
2018-03-14T17:46:34.728Z,10.60
2018-03-14T17:49:03.195Z,9.70
2018-03-14T17:51:31.747Z,10.33
2018-03-14T17:54:00.234Z,13.65
2018-03-14T17:56:28.756Z,14.80
2018-03-14T17:58:57.251Z,12.47
2018-03-14T18:01:25.771Z,12.73
2018-03-14T18:03:54.246Z,15.02
2018-03-14T18:06:22.672Z,18.58
2018-03-14T18:08:51.272Z,11.90
2018-03-14T18:11:19.957Z,10.90
2018-03-14T18:13:48.553Z,11.97
2018-03-14T18:16:18.027Z,10.90
2018-03-14T18:18:46.530Z,11.30
2018-03-14T18:21:14.930Z,12.20
2018-03-14T18:23:43.390Z,12.37
2018-03-14T18:26:12.744Z,15.10
2018-03-14T18:28:41.211Z,17.10
2018-03-14T18:31:09.639Z,26.70
2018-03-14T18:33:38.173Z,49.23
2018-03-14T18:36:06.598Z,41.37
2018-03-14T18:38:35.025Z,25.15
2018-03-14T18:41:03.594Z,17.73
2018-03-14T18:43:32.099Z,15.00
2018-03-14T18:46:00.511Z,10.40
2018-03-14T18:48:29.087Z,9.80
2018-03-14T18:50:57.495Z,10.70
2018-03-14T18:53:25.956Z,10.67
2018-03-14T18:55:54.611Z,10.27
2018-03-14T18:58:23.000Z,10.37
2018-03-14T19:00:51.568Z,12.30
2018-03-14T19:03:20.016Z,12.77
2018-03-14T19:05:48.531Z,13.73
2018-03-14T19:08:16.930Z,13.18
2018-03-14T19:10:45.552Z,10.50
2018-03-14T19:13:14.163Z,9.50
2018-03-14T19:15:42.781Z,9.13
2018-03-14T19:18:11.257Z,7.30
2018-03-14T19:20:40.012Z,5.93
2018-03-14T19:23:08.460Z,5.37
2018-03-14T19:25:36.939Z,5.90
2018-03-14T19:28:05.406Z,5.47
2018-03-14T19:30:33.842Z,5.32
2018-03-14T19:33:02.434Z,5.10
2018-03-14T19:35:30.998Z,5.65
2018-03-14T19:37:59.538Z,6.00
2018-03-14T19:40:28.030Z,5.77
2018-03-14T19:42:56.436Z,7.20
2018-03-14T19:45:24.922Z,7.17
2018-03-14T19:47:53.327Z,6.00
2018-03-14T19:50:21.746Z,6.10
2018-03-14T19:52:50.232Z,5.77
2018-03-14T19:55:18.853Z,5.97
2018-03-14T19:57:47.326Z,6.17
2018-03-14T20:00:16.730Z,6.62
2018-03-14T20:02:45.360Z,6.55
2018-03-14T20:05:13.893Z,7.20
2018-03-14T20:07:42.386Z,7.77
2018-03-14T20:10:10.936Z,8.30
2018-03-14T20:12:39.448Z,7.83
2018-03-14T20:15:07.853Z,7.53
2018-03-14T20:17:36.383Z,8.40
2018-03-14T20:20:04.703Z,8.48
2018-03-14T20:22:33.138Z,8.30
2018-03-14T20:25:02.414Z,8.43
2018-03-14T20:27:30.752Z,8.68
2018-03-14T20:29:59.162Z,9.30
2018-03-14T20:32:27.487Z,7.77
2018-03-14T20:34:55.839Z,8.80
2018-03-14T20:37:24.169Z,10.00
2018-03-14T20:39:52.521Z,8.50
2018-03-14T20:42:21.412Z,8.53
2018-03-14T20:44:49.845Z,9.45
2018-03-14T20:47:18.167Z,9.73
2018-03-14T20:49:46.521Z,9.00
2018-03-14T20:52:14.852Z,10.30
2018-03-14T20:54:43.213Z,9.00
2018-03-14T20:57:11.550Z,10.60
2018-03-14T20:59:39.883Z,10.40
2018-03-14T21:02:08.224Z,12.30
2018-03-14T21:04:36.553Z,11.32
2018-03-14T21:07:04.910Z,11.38
2018-03-14T21:09:33.265Z,13.47
2018-03-14T21:12:01.603Z,12.68
2018-03-14T21:14:29.962Z,12.50
2018-03-14T21:16:58.282Z,12.02
2018-03-14T21:19:26.609Z,12.87
2018-03-14T21:21:54.966Z,11.83
2018-03-14T21:24:23.295Z,11.60
2018-03-14T21:26:51.645Z,11.83
2018-03-14T21:29:19.980Z,11.12
2018-03-14T21:31:48.305Z,11.48
2018-03-14T21:34:16.658Z,11.90
2018-03-14T21:36:46.019Z,10.50
2018-03-14T21:39:14.476Z,10.43
2018-03-14T21:41:42.701Z,9.63
2018-03-14T21:44:11.046Z,9.45
2018-03-14T21:46:40.262Z,9.30
2018-03-14T21:49:08.610Z,9.10
2018-03-14T21:51:36.972Z,12.18
2018-03-14T21:54:05.302Z,10.10
2018-03-14T21:56:34.654Z,9.13
2018-03-14T21:59:03.010Z,9.47
2018-03-14T22:01:31.330Z,8.53
2018-03-14T22:03:59.654Z,8.10
2018-03-14T22:06:28.003Z,9.83
2018-03-14T22:08:56.328Z,8.57
2018-03-14T22:11:24.671Z,8.43
2018-03-14T22:13:52.994Z,9.80
2018-03-14T22:16:22.374Z,9.05
2018-03-14T22:18:50.707Z,9.30
2018-03-14T22:21:19.047Z,8.90
2018-03-14T22:23:47.370Z,8.60
2018-03-14T22:26:15.718Z,8.47
2018-03-14T22:28:44.042Z,8.43
2018-03-14T22:31:12.395Z,9.15
2018-03-14T22:33:40.697Z,8.10
2018-03-14T22:36:09.033Z,7.55
2018-03-14T22:38:37.362Z,8.13
2018-03-14T22:41:05.702Z,7.35
2018-03-14T22:43:34.022Z,7.87
2018-03-14T22:46:02.629Z,8.10
2018-03-14T22:48:30.954Z,8.43
2018-03-14T22:50:59.274Z,8.00
2018-03-14T22:53:27.613Z,6.57
2018-03-14T22:55:55.934Z,7.18
2018-03-14T22:58:24.279Z,7.03
2018-03-14T23:00:52.594Z,7.80
2018-03-14T23:03:20.938Z,6.80
2018-03-14T23:05:49.254Z,7.50
2018-03-14T23:08:17.599Z,7.72
2018-03-14T23:10:45.917Z,7.65
2018-03-14T23:13:14.259Z,7.87
2018-03-14T23:15:42.578Z,7.43
2018-03-14T23:18:10.921Z,8.50
2018-03-14T23:20:39.242Z,8.77
2018-03-14T23:23:07.594Z,6.80
2018-03-14T23:25:35.906Z,8.32
2018-03-14T23:28:04.234Z,6.50
2018-03-14T23:30:32.574Z,7.45
2018-03-14T23:33:00.893Z,7.28
2018-03-14T23:35:29.234Z,7.55
2018-03-14T23:37:57.547Z,5.97
2018-03-14T23:40:25.891Z,7.22
2018-03-14T23:42:54.210Z,7.30
2018-03-14T23:45:22.555Z,6.25
2018-03-14T23:47:50.874Z,7.12
2018-03-14T23:50:19.218Z,7.55
2018-03-14T23:52:47.526Z,7.25
2018-03-14T23:55:15.866Z,7.68
2018-03-14T23:57:44.184Z,6.35
